createdAt,value
2022-08-28T00:01:02.346Z,12.74
2022-08-28T00:03:30.500Z,12.81
2022-08-28T00:05:58.308Z,12.86
2022-08-28T00:08:28.005Z,12.97
2022-08-28T00:10:55.629Z,13.10
2022-08-28T00:13:25.451Z,13.20
2022-08-28T00:15:56.431Z,13.23
2022-08-28T00:18:24.248Z,13.52
2022-08-28T00:20:52.575Z,13.45
2022-08-28T00:23:20.428Z,13.48
2022-08-28T00:25:49.459Z,13.59
2022-08-28T00:28:24.354Z,13.63
2022-08-28T00:30:54.426Z,13.51
2022-08-28T00:33:23.731Z,13.47
2022-08-28T00:35:51.732Z,13.31
2022-08-28T00:38:20.991Z,13.34
2022-08-28T00:40:52.146Z,13.21
2022-08-28T00:43:27.405Z,13.23
2022-08-28T00:45:55.002Z,13.01
2022-08-28T00:48:22.911Z,13.03
2022-08-28T00:51:08.463Z,13.14
2022-08-28T00:53:36.088Z,12.95
2022-08-28T00:56:12.268Z,13.02
2022-08-28T00:58:42.108Z,13.05
2022-08-28T01:01:09.985Z,12.93
2022-08-28T01:03:38.036Z,12.67
2022-08-28T01:06:06.618Z,12.70
2022-08-28T01:08:35.324Z,12.44
2022-08-28T01:11:06.131Z,12.45
2022-08-28T01:13:34.368Z,12.50
2022-08-28T01:16:03.724Z,12.26
2022-08-28T01:18:32.707Z,12.28
2022-08-28T01:21:09.347Z,12.16
2022-08-28T01:23:52.120Z,11.79
2022-08-28T01:26:20.281Z,11.64
2022-08-28T01:28:48.295Z,11.79
2022-08-28T01:31:16.657Z,11.49
2022-08-28T01:33:45.921Z,11.42
2022-08-28T01:36:14.514Z,11.27
2022-08-28T01:38:43.783Z,11.27
2022-08-28T01:41:14.523Z,11.21
2022-08-28T01:43:42.786Z,11.12
2022-08-28T01:46:12.162Z,10.94
2022-08-28T01:48:42.619Z,10.87
2022-08-28T01:51:10.628Z,10.80
2022-08-28T01:53:41.576Z,10.81
2022-08-28T01:56:16.696Z,10.81
2022-08-28T01:58:44.682Z,10.66
2022-08-28T02:01:13.635Z,10.64
2022-08-28T02:03:43.056Z,10.59
2022-08-28T02:06:11.326Z,10.54
2022-08-28T02:08:39.127Z,10.61
2022-08-28T02:11:08.666Z,10.58
2022-08-28T02:13:39.251Z,10.53
2022-08-28T02:16:09.865Z,10.50
2022-08-28T02:18:38.236Z,10.45
2022-08-28T02:21:06.329Z,10.41
2022-08-28T02:23:33.935Z,10.31
2022-08-28T02:26:01.579Z,10.25
2022-08-28T02:28:29.236Z,10.22
2022-08-28T02:30:58.224Z,10.22
2022-08-28T02:33:25.953Z,10.20
2022-08-28T02:35:53.539Z,10.18
2022-08-28T02:38:22.503Z,10.18
2022-08-28T02:40:50.089Z,10.21
2022-08-28T02:43:17.930Z,10.17
2022-08-28T02:45:45.590Z,10.17
2022-08-28T02:48:17.560Z,10.15
2022-08-28T02:50:46.183Z,10.22
2022-08-28T02:53:13.990Z,10.28
2022-08-28T02:55:41.731Z,10.25
2022-08-28T02:58:09.606Z,10.28
2022-08-28T03:00:37.315Z,10.21
2022-08-28T03:03:05.266Z,10.11
2022-08-28T03:05:34.277Z,10.12
2022-08-28T03:08:02.074Z,10.14
2022-08-28T03:10:29.663Z,10.10
2022-08-28T03:12:57.291Z,10.05
2022-08-28T03:15:24.907Z,10.05
2022-08-28T03:17:52.491Z,10.07
2022-08-28T03:20:20.322Z,10.19
2022-08-28T03:23:06.625Z,10.40
2022-08-28T03:25:34.283Z,10.59
2022-08-28T03:28:01.886Z,10.70
2022-08-28T03:30:30.091Z,10.66
2022-08-28T03:32:57.727Z,10.53
2022-08-28T03:35:25.326Z,10.45
2022-08-28T03:37:54.295Z,10.33
2022-08-28T03:40:22.228Z,10.28
2022-08-28T03:42:53.288Z,10.23
2022-08-28T03:45:21.821Z,10.28
2022-08-28T03:47:49.523Z,10.17
2022-08-28T03:50:19.802Z,10.15
2022-08-28T03:52:47.544Z,10.11
2022-08-28T03:55:18.753Z,9.96
2022-08-28T03:57:46.763Z,10.10
2022-08-28T04:00:15.889Z,10.22
2022-08-28T04:02:44.366Z,10.36
2022-08-28T04:05:12.050Z,10.47
2022-08-28T04:07:40.033Z,10.47
2022-08-28T04:10:08.776Z,10.39
2022-08-28T04:12:37.918Z,10.27
2022-08-28T04:15:07.250Z,10.13
2022-08-28T04:17:34.982Z,10.01
2022-08-28T04:20:02.596Z,9.99
2022-08-28T04:22:31.044Z,9.94
2022-08-28T04:24:58.659Z,9.91
2022-08-28T04:27:26.243Z,9.93
2022-08-28T04:29:55.146Z,9.88
2022-08-28T04:32:23.652Z,9.82
2022-08-28T04:34:51.611Z,9.80
2022-08-28T04:37:19.879Z,9.73
2022-08-28T04:39:50.287Z,9.67
2022-08-28T04:42:17.908Z,9.52
2022-08-28T04:44:45.538Z,9.47
2022-08-28T04:47:14.515Z,9.41
2022-08-28T04:49:42.118Z,9.39
2022-08-28T04:52:10.612Z,9.45
2022-08-28T04:54:38.591Z,9.43
2022-08-28T04:57:06.642Z,9.40
2022-08-28T04:59:34.312Z,9.45
2022-08-28T05:02:02.277Z,9.47
2022-08-28T05:04:31.286Z,9.51
2022-08-28T05:06:58.872Z,9.59
2022-08-28T05:09:26.448Z,9.60
2022-08-28T05:11:54.107Z,9.61
2022-08-28T05:14:22.098Z,9.64
2022-08-28T05:16:52.736Z,9.77
2022-08-28T05:19:21.829Z,9.94
2022-08-28T05:21:51.147Z,10.25
2022-08-28T05:24:19.420Z,10.67
2022-08-28T05:26:48.064Z,11.05
2022-08-28T05:29:16.897Z,11.43
2022-08-28T05:31:46.290Z,11.61
2022-08-28T05:34:15.111Z,11.66
2022-08-28T05:36:42.875Z,11.67
2022-08-28T05:39:12.922Z,11.64
2022-08-28T05:41:43.150Z,11.98
2022-08-28T05:44:13.027Z,11.96
2022-08-28T05:46:42.577Z,12.12
2022-08-28T05:49:10.628Z,12.31
2022-08-28T05:51:40.747Z,12.29
2022-08-28T05:54:08.704Z,12.30
2022-08-28T05:56:40.443Z,12.50
2022-08-28T05:59:09.378Z,12.51
2022-08-28T06:01:40.370Z,12.96
2022-08-28T06:04:09.898Z,12.91
2022-08-28T06:06:39.495Z,13.52
2022-08-28T06:09:09.019Z,13.66
2022-08-28T06:11:38.823Z,14.42
2022-08-28T06:14:13.471Z,15.84
2022-08-28T06:16:45.467Z,18.10
2022-08-28T06:19:13.919Z,19.14
2022-08-28T06:21:42.471Z,20.59
2022-08-28T06:24:10.442Z,18.94
2022-08-28T06:26:39.524Z,19.11
2022-08-28T06:29:08.927Z,20.68
2022-08-28T06:31:36.678Z,20.16
2022-08-28T06:34:04.747Z,18.20
2022-08-28T06:36:34.351Z,17.07
2022-08-28T06:39:03.630Z,16.41
2022-08-28T06:41:33.023Z,15.99
2022-08-28T06:44:02.112Z,15.64
2022-08-28T06:46:30.388Z,15.72
2022-08-28T06:48:57.976Z,15.76
2022-08-28T06:51:25.604Z,15.35
2022-08-28T06:53:53.220Z,15.44
2022-08-28T06:56:25.485Z,15.49
2022-08-28T06:58:53.592Z,15.39
2022-08-28T07:01:24.354Z,15.27
2022-08-28T07:03:53.372Z,15.44
2022-08-28T07:06:22.125Z,15.30
2022-08-28T07:08:50.861Z,15.27
2022-08-28T07:11:21.927Z,15.56
2022-08-28T07:13:54.321Z,15.66
2022-08-28T07:16:25.842Z,15.70
2022-08-28T07:18:53.487Z,15.73
2022-08-28T07:21:21.427Z,15.79
2022-08-28T07:23:49.384Z,15.77
2022-08-28T07:26:19.079Z,15.81
2022-08-28T07:28:46.738Z,15.90
2022-08-28T07:31:18.396Z,15.93
2022-08-28T07:33:47.675Z,16.04
2022-08-28T07:36:29.757Z,16.07
2022-08-28T07:38:58.296Z,16.09
2022-08-28T07:41:27.955Z,16.08
2022-08-28T07:44:13.263Z,15.92
2022-08-28T07:46:41.070Z,16.00
2022-08-28T07:49:10.748Z,16.14
2022-08-28T07:51:38.561Z,16.23
2022-08-28T07:54:06.532Z,16.19
2022-08-28T07:56:40.553Z,16.37
2022-08-28T07:59:09.724Z,16.33
2022-08-28T08:01:39.190Z,16.41
2022-08-28T08:04:07.398Z,16.54
2022-08-28T08:06:37.833Z,16.49
2022-08-28T08:09:07.064Z,16.72
2022-08-28T08:11:35.472Z,16.87
2022-08-28T08:14:05.903Z,16.81
2022-08-28T08:16:35.488Z,16.96
2022-08-28T08:19:03.888Z,17.26
2022-08-28T08:21:32.238Z,17.03
2022-08-28T08:24:01.202Z,17.11
2022-08-28T08:26:29.522Z,17.23
2022-08-28T08:28:57.611Z,17.44
2022-08-28T08:31:26.965Z,17.53
2022-08-28T08:33:56.670Z,17.80
2022-08-28T08:36:26.035Z,17.79
2022-08-28T08:38:59.406Z,17.76
2022-08-28T08:41:31.231Z,17.83
2022-08-28T08:44:02.198Z,17.82
2022-08-28T08:46:35.450Z,17.94
2022-08-28T08:49:05.912Z,18.20
2022-08-28T08:51:42.331Z,18.26
2022-08-28T08:54:12.404Z,18.25
2022-08-28T08:56:43.101Z,18.28
2022-08-28T08:59:14.820Z,18.51
2022-08-28T09:01:45.570Z,18.84
2022-08-28T09:04:24.636Z,18.87
2022-08-28T09:06:55.807Z,18.54
2022-08-28T09:09:28.639Z,18.40
2022-08-28T09:12:00.590Z,18.37
2022-08-28T09:14:36.315Z,18.83
2022-08-28T09:17:04.526Z,18.84
2022-08-28T09:19:32.531Z,19.36
2022-08-28T09:22:00.268Z,19.43
2022-08-28T09:24:30.454Z,19.52
2022-08-28T09:27:01.450Z,19.29
2022-08-28T09:29:32.784Z,19.25
2022-08-28T09:32:17.836Z,19.59
2022-08-28T09:35:01.454Z,19.54
2022-08-28T09:37:32.250Z,18.79
2022-08-28T09:40:18.897Z,18.58
2022-08-28T09:43:20.017Z,18.86
2022-08-28T09:45:53.760Z,19.10
2022-08-28T09:48:23.224Z,19.35
2022-08-28T09:50:59.267Z,19.26
2022-08-28T09:53:30.635Z,19.97
2022-08-28T09:56:04.627Z,20.15
2022-08-28T09:58:36.722Z,20.22
2022-08-28T10:01:12.849Z,20.39
2022-08-28T10:03:46.790Z,19.75
2022-08-28T10:06:16.610Z,19.61
2022-08-28T10:08:55.031Z,19.26
2022-08-28T10:11:32.343Z,18.89
2022-08-28T10:14:11.529Z,19.54
2022-08-28T10:16:48.121Z,20.36
2022-08-28T10:19:24.047Z,20.74
2022-08-28T10:21:57.367Z,20.44
2022-08-28T10:24:37.323Z,20.29
2022-08-28T10:27:12.327Z,20.43
2022-08-28T10:29:51.504Z,19.57
2022-08-28T10:32:39.959Z,19.50
2022-08-28T10:35:12.737Z,20.26
2022-08-28T10:37:48.763Z,20.11
2022-08-28T10:40:18.335Z,20.40
2022-08-28T10:42:48.287Z,20.81
2022-08-28T10:45:20.254Z,20.79
2022-08-28T10:47:50.397Z,20.93
2022-08-28T10:50:23.619Z,20.46
2022-08-28T10:52:57.595Z,20.37
2022-08-28T10:55:32.280Z,20.43
2022-08-28T10:58:04.961Z,20.33
2022-08-28T11:00:55.820Z,20.92
2022-08-28T11:03:34.349Z,20.96
2022-08-28T11:06:05.857Z,20.66
2022-08-28T11:08:38.530Z,20.48
2022-08-28T11:11:14.427Z,20.36
2022-08-28T11:13:56.138Z,20.01
2022-08-28T11:16:27.901Z,19.76
2022-08-28T11:19:30.045Z,19.86
2022-08-28T11:22:01.287Z,19.81
2022-08-28T11:24:36.159Z,19.97
2022-08-28T11:27:18.649Z,20.57
2022-08-28T11:30:18.751Z,20.91
2022-08-28T11:33:02.401Z,21.55
2022-08-28T11:35:46.233Z,21.21
2022-08-28T11:38:16.455Z,21.31
2022-08-28T11:40:53.335Z,20.95
2022-08-28T11:43:40.216Z,20.91
2022-08-28T11:46:24.545Z,20.87
2022-08-28T11:48:54.699Z,20.72
2022-08-28T11:51:37.273Z,20.86
2022-08-28T11:54:17.224Z,20.92
2022-08-28T11:56:52.845Z,21.23
2022-08-28T11:59:41.058Z,21.43
2022-08-28T12:02:40.625Z,21.37
2022-08-28T12:05:11.718Z,20.72
2022-08-28T12:07:40.567Z,20.63
2022-08-28T12:10:51.502Z,20.73
2022-08-28T12:13:44.671Z,20.72
2022-08-28T12:16:12.645Z,20.91
2022-08-28T12:19:04.426Z,20.85
2022-08-28T12:21:39.167Z,20.51
2022-08-28T12:24:16.766Z,20.49
2022-08-28T12:26:48.203Z,21.11
2022-08-28T12:29:28.947Z,21.86
2022-08-28T12:32:16.321Z,21.68
2022-08-28T12:34:50.730Z,21.47
2022-08-28T12:37:30.386Z,21.12
2022-08-28T12:40:00.835Z,20.62
2022-08-28T12:42:32.411Z,20.69
2022-08-28T12:45:02.595Z,21.05
2022-08-28T12:47:30.739Z,21.69
2022-08-28T12:49:58.472Z,22.03
2022-08-28T12:52:27.766Z,21.82
2022-08-28T12:54:56.398Z,22.14
2022-08-28T12:57:25.479Z,21.44
2022-08-28T12:59:55.444Z,21.29
2022-08-28T13:02:27.624Z,21.33
2022-08-28T13:04:58.060Z,22.01
2022-08-28T13:07:30.057Z,21.84
2022-08-28T13:10:00.366Z,21.67
2022-08-28T13:12:54.680Z,21.00
2022-08-28T13:15:45.634Z,21.41
2022-08-28T13:18:38.659Z,21.85
2022-08-28T13:21:33.455Z,22.11
2022-08-28T13:24:26.092Z,21.70
2022-08-28T13:27:02.742Z,20.98
2022-08-28T13:29:30.988Z,20.98
2022-08-28T13:32:00.732Z,20.79
2022-08-28T13:34:30.095Z,21.09
2022-08-28T13:36:59.759Z,21.23
2022-08-28T13:39:31.641Z,21.59
2022-08-28T13:42:02.148Z,21.42
2022-08-28T13:44:33.411Z,21.25
2022-08-28T13:47:02.123Z,21.29
2022-08-28T13:49:29.967Z,21.31
2022-08-28T13:51:59.501Z,20.88
2022-08-28T13:54:29.083Z,20.72
2022-08-28T13:56:57.035Z,21.00
2022-08-28T13:59:24.738Z,20.84
2022-08-28T14:02:12.951Z,21.03
2022-08-28T14:04:40.620Z,20.84
2022-08-28T14:07:08.258Z,20.42
2022-08-28T14:09:37.254Z,20.13
2022-08-28T14:12:06.399Z,20.47
2022-08-28T14:14:34.024Z,20.86
2022-08-28T14:17:02.331Z,20.96
2022-08-28T14:19:30.471Z,21.09
2022-08-28T14:21:58.532Z,21.33
2022-08-28T14:24:26.579Z,21.00
2022-08-28T14:26:56.419Z,21.00
2022-08-28T14:29:24.144Z,20.94
2022-08-28T14:31:51.863Z,21.31
2022-08-28T14:34:22.304Z,21.33
2022-08-28T14:36:54.876Z,21.05
2022-08-28T14:39:23.519Z,21.43
2022-08-28T14:41:51.669Z,21.44
2022-08-28T14:44:21.335Z,21.73
2022-08-28T14:46:50.301Z,21.73
2022-08-28T14:51:36.229Z,21.39
2022-08-28T14:54:05.770Z,20.62
2022-08-28T14:56:33.540Z,20.32
2022-08-28T14:59:02.289Z,20.29
2022-08-28T15:01:40.375Z,20.69
2022-08-28T15:04:10.900Z,20.81
2022-08-28T15:06:42.351Z,20.65
2022-08-28T15:09:10.791Z,20.48
2022-08-28T15:11:39.222Z,20.01
2022-08-28T15:14:08.620Z,19.79
2022-08-28T15:16:39.315Z,19.73
2022-08-28T15:19:11.533Z,20.10
2022-08-28T15:21:43.075Z,20.58
2022-08-28T15:24:10.775Z,21.12
2022-08-28T15:26:40.044Z,21.50
2022-08-28T15:29:08.128Z,20.37
2022-08-28T15:31:38.814Z,20.19
2022-08-28T15:34:13.431Z,20.06
2022-08-28T15:36:43.131Z,20.19
2022-08-28T15:39:28.635Z,20.39
2022-08-28T15:41:56.468Z,20.50
2022-08-28T15:44:24.135Z,20.15
2022-08-28T15:46:53.210Z,20.29
2022-08-28T15:49:23.772Z,20.11
2022-08-28T15:51:53.516Z,20.08
2022-08-28T15:54:22.114Z,19.97
2022-08-28T15:56:50.744Z,20.17
2022-08-28T15:59:21.904Z,20.18
2022-08-28T16:01:51.577Z,20.03
2022-08-28T16:04:20.420Z,19.78
2022-08-28T16:06:48.015Z,19.47
2022-08-28T16:09:16.948Z,19.36
2022-08-28T16:11:44.606Z,19.33
2022-08-28T16:14:15.868Z,19.51
2022-08-28T16:16:46.378Z,19.48
2022-08-28T16:19:16.823Z,19.55
2022-08-28T16:21:44.797Z,19.79
2022-08-28T16:24:12.447Z,20.21
2022-08-28T16:26:41.380Z,20.40
2022-08-28T16:29:09.091Z,20.59
2022-08-28T16:31:37.092Z,20.50
2022-08-28T16:34:05.140Z,20.23
2022-08-28T16:36:33.212Z,19.65
2022-08-28T16:39:04.084Z,19.47
2022-08-28T16:41:32.265Z,19.63
2022-08-28T16:44:01.276Z,19.83
2022-08-28T16:46:29.335Z,19.41
2022-08-28T16:48:57.016Z,19.15
2022-08-28T16:51:26.799Z,18.83
2022-08-28T16:53:54.638Z,18.77
2022-08-28T16:56:26.330Z,18.76
2022-08-28T16:58:53.936Z,18.98
2022-08-28T17:01:24.125Z,18.89
2022-08-28T17:03:52.740Z,19.01
2022-08-28T17:06:23.309Z,18.89
2022-08-28T17:08:55.873Z,18.69
2022-08-28T17:11:25.520Z,18.56
2022-08-28T17:13:53.337Z,18.50
2022-08-28T17:16:23.824Z,18.48
2022-08-28T17:18:52.417Z,18.21
2022-08-28T17:21:37.979Z,18.03
2022-08-28T17:24:06.687Z,17.94
2022-08-28T17:26:34.261Z,18.00
2022-08-28T17:29:02.248Z,18.06
2022-08-28T17:31:31.308Z,18.17
2022-08-28T17:33:58.915Z,18.20
2022-08-28T17:36:33.421Z,18.27
2022-08-28T17:39:02.500Z,18.30
2022-08-28T17:41:30.108Z,18.12
2022-08-28T17:43:58.197Z,18.05
2022-08-28T17:46:26.446Z,18.11
2022-08-28T17:48:56.417Z,18.02
2022-08-28T17:51:42.661Z,18.07
2022-08-28T17:54:12.161Z,18.00
2022-08-28T17:56:40.066Z,17.93
2022-08-28T17:59:07.688Z,18.01
2022-08-28T18:01:35.961Z,17.84
2022-08-28T18:04:06.127Z,17.70
2022-08-28T18:06:34.265Z,17.55
2022-08-28T18:09:02.077Z,17.43
2022-08-28T18:11:29.826Z,17.24
2022-08-28T18:13:57.434Z,17.28
2022-08-28T18:16:30.351Z,17.23
2022-08-28T18:18:58.928Z,17.04
2022-08-28T18:21:29.009Z,17.10
2022-08-28T18:23:56.734Z,16.95
2022-08-28T18:26:24.560Z,16.82
2022-08-28T18:28:52.536Z,16.76
2022-08-28T18:31:20.648Z,16.50
2022-08-28T18:33:48.364Z,16.40
2022-08-28T18:36:16.542Z,16.38
2022-08-28T18:38:47.022Z,16.22
2022-08-28T18:41:14.650Z,16.33
2022-08-28T18:43:42.398Z,16.17
2022-08-28T18:46:10.684Z,15.96
2022-08-28T18:48:38.762Z,16.20
2022-08-28T18:51:07.609Z,15.99
2022-08-28T18:53:35.628Z,15.77
2022-08-28T18:56:05.371Z,15.87
2022-08-28T18:58:33.115Z,15.96
2022-08-28T19:01:02.100Z,15.73
2022-08-28T19:03:30.098Z,15.74
2022-08-28T19:05:57.862Z,15.58
2022-08-28T19:08:25.655Z,15.50
2022-08-28T19:10:53.895Z,15.64
2022-08-28T19:13:23.195Z,15.22
2022-08-28T19:15:52.581Z,15.40
2022-08-28T19:18:20.951Z,15.24
2022-08-28T19:20:48.669Z,15.36
2022-08-28T19:23:17.826Z,15.31
2022-08-28T19:25:48.320Z,14.98
2022-08-28T19:28:16.026Z,14.79
2022-08-28T19:30:47.191Z,14.64
2022-08-28T19:33:14.856Z,14.31
2022-08-28T19:35:42.428Z,14.04
2022-08-28T19:38:10.234Z,14.41
2022-08-28T19:40:39.018Z,14.70
2022-08-28T19:43:06.663Z,14.46
2022-08-28T19:45:38.252Z,14.37
2022-08-28T19:48:07.367Z,14.26
2022-08-28T19:50:35.237Z,14.23
2022-08-28T19:53:03.284Z,14.03
2022-08-28T19:55:31.277Z,13.92
2022-08-28T19:57:59.133Z,13.76
2022-08-28T20:00:29.237Z,13.44
2022-08-28T20:02:57.700Z,13.28
2022-08-28T20:05:26.714Z,13.20
2022-08-28T20:07:54.363Z,13.18
2022-08-28T20:10:22.313Z,13.23
2022-08-28T20:12:50.285Z,13.23
2022-08-28T20:15:19.419Z,13.28
2022-08-28T20:17:50.053Z,13.22
2022-08-28T20:20:18.213Z,13.12
2022-08-28T20:22:47.272Z,13.09
2022-08-28T20:25:18.048Z,13.16
2022-08-28T20:27:45.841Z,13.51
2022-08-28T20:30:14.246Z,13.69
2022-08-28T20:32:41.887Z,13.32
2022-08-28T20:35:11.513Z,13.02
2022-08-28T20:37:44.550Z,12.82
2022-08-28T20:40:17.849Z,12.75
2022-08-28T20:42:45.954Z,12.56
2022-08-28T20:45:15.298Z,12.43
2022-08-28T20:47:42.966Z,12.30
2022-08-28T20:50:11.401Z,12.30
2022-08-28T20:52:39.550Z,12.28
2022-08-28T20:55:09.297Z,12.24
2022-08-28T20:57:38.227Z,12.20
2022-08-28T21:00:08.751Z,12.16
2022-08-28T21:02:37.254Z,12.10
2022-08-28T21:05:06.205Z,11.93
2022-08-28T21:07:35.147Z,11.80
2022-08-28T21:10:06.985Z,11.81
2022-08-28T21:12:35.983Z,11.94
2022-08-28T21:15:06.586Z,11.89
2022-08-28T21:17:34.386Z,11.82
2022-08-28T21:20:04.304Z,11.78
2022-08-28T21:22:35.935Z,11.71
2022-08-28T21:25:04.055Z,11.72
2022-08-28T21:27:31.743Z,11.74
2022-08-28T21:30:00.657Z,11.71
2022-08-28T21:32:30.531Z,11.69
2022-08-28T21:34:58.351Z,11.60
2022-08-28T21:37:25.947Z,11.56
2022-08-28T21:39:53.921Z,11.48
2022-08-28T21:42:25.106Z,11.42
2022-08-28T21:44:54.352Z,11.30
2022-08-28T21:47:23.359Z,11.25
2022-08-28T21:49:53.164Z,11.28
2022-08-28T21:52:21.796Z,11.28
2022-08-28T21:54:49.563Z,11.29
2022-08-28T21:57:17.647Z,11.32
2022-08-28T21:59:45.296Z,11.30
2022-08-28T22:02:12.952Z,11.28
2022-08-28T22:04:40.577Z,11.27
2022-08-28T22:07:11.108Z,11.20
2022-08-28T22:09:38.758Z,11.14
2022-08-28T22:12:06.660Z,11.04
2022-08-28T22:14:34.278Z,10.97
2022-08-28T22:17:01.924Z,10.98
2022-08-28T22:19:29.575Z,10.99
2022-08-28T22:22:14.932Z,10.85
2022-08-28T22:24:43.886Z,10.75
2022-08-28T22:27:13.435Z,10.77
2022-08-28T22:29:41.084Z,10.67
2022-08-28T22:32:09.260Z,10.66
2022-08-28T22:34:39.441Z,10.66
2022-08-28T22:37:07.089Z,10.58
2022-08-28T22:39:34.688Z,10.53
2022-08-28T22:42:03.635Z,10.55
2022-08-28T22:44:31.260Z,10.38
2022-08-28T22:46:59.323Z,10.40
2022-08-28T22:49:27.059Z,10.32
2022-08-28T22:51:54.724Z,10.33
2022-08-28T22:54:22.354Z,10.38
2022-08-28T22:56:49.932Z,10.33
2022-08-28T22:59:19.075Z,10.25
2022-08-28T23:01:46.694Z,10.25
2022-08-28T23:04:14.307Z,10.17
2022-08-28T23:06:42.049Z,10.25
2022-08-28T23:09:09.684Z,10.30
2022-08-28T23:11:38.339Z,10.36
2022-08-28T23:14:06.498Z,10.41
2022-08-28T23:16:36.019Z,10.54
2022-08-28T23:19:08.789Z,10.56
2022-08-28T23:21:43.403Z,10.63
2022-08-28T23:24:11.711Z,10.75
2022-08-28T23:26:39.269Z,10.77
2022-08-28T23:29:06.872Z,10.85
2022-08-28T23:31:36.294Z,10.73
2022-08-28T23:34:04.998Z,10.71
2022-08-28T23:36:35.583Z,10.77
2022-08-28T23:39:03.600Z,10.73
2022-08-28T23:41:31.395Z,10.76
2022-08-28T23:43:59.019Z,10.79
2022-08-28T23:46:26.631Z,10.71
2022-08-28T23:48:55.699Z,10.93
2022-08-28T23:51:23.774Z,10.92
2022-08-28T23:53:52.962Z,10.98
2022-08-28T23:56:20.543Z,11.01
2022-08-28T23:58:48.144Z,11.06
